sensor_id;sensor_type;location;lat;lon;timestamp;P1;durP1;ratioP1;P2;durP2;ratioP2
50363;SDS011;36272;59.400;17.982;2023-04-25T00:01:06;5.10;;;4.25;;
50363;SDS011;36272;59.400;17.982;2023-04-25T00:06:10;7.90;;;4.30;;
50363;SDS011;36272;59.400;17.982;2023-04-25T00:11:11;9.55;;;4.95;;
50363;SDS011;36272;59.400;17.982;2023-04-25T00:16:13;6.47;;;4.40;;
50363;SDS011;36272;59.400;17.982;2023-04-25T00:21:17;6.72;;;5.30;;
50363;SDS011;36272;59.400;17.982;2023-04-25T00:26:21;7.35;;;4.90;;
50363;SDS011;36272;59.400;17.982;2023-04-25T00:31:22;10.50;;;5.22;;
50363;SDS011;36272;59.400;17.982;2023-04-25T00:36:24;12.00;;;5.45;;
50363;SDS011;36272;59.400;17.982;2023-04-25T00:41:27;8.93;;;5.53;;
50363;SDS011;36272;59.400;17.982;2023-04-25T00:46:28;11.30;;;6.20;;
50363;SDS011;36272;59.400;17.982;2023-04-25T00:51:34;12.88;;;6.47;;
50363;SDS011;36272;59.400;17.982;2023-04-25T00:56:36;13.13;;;6.30;;
50363;SDS011;36272;59.400;17.982;2023-04-25T01:01:38;12.40;;;6.82;;
50363;SDS011;36272;59.400;17.982;2023-04-25T01:06:49;10.82;;;7.03;;
50363;SDS011;36272;59.400;17.982;2023-04-25T01:11:51;10.57;;;7.10;;
50363;SDS011;36272;59.400;17.982;2023-04-25T01:16:53;13.15;;;7.28;;
50363;SDS011;36272;59.400;17.982;2023-04-25T01:21:55;17.48;;;9.00;;
50363;SDS011;36272;59.400;17.982;2023-04-25T01:26:57;15.57;;;8.52;;
50363;SDS011;36272;59.400;17.982;2023-04-25T01:32:02;11.20;;;6.88;;
50363;SDS011;36272;59.400;17.982;2023-04-25T01:37:04;11.18;;;6.32;;
50363;SDS011;36272;59.400;17.982;2023-04-25T01:42:06;10.50;;;6.22;;
50363;SDS011;36272;59.400;17.982;2023-04-25T01:47:07;8.27;;;5.55;;
50363;SDS011;36272;59.400;17.982;2023-04-25T01:52:09;11.10;;;6.60;;
50363;SDS011;36272;59.400;17.982;2023-04-25T01:57:11;14.25;;;7.25;;
50363;SDS011;36272;59.400;17.982;2023-04-25T02:02:13;11.23;;;7.00;;
50363;SDS011;36272;59.400;17.982;2023-04-25T02:07:14;11.57;;;6.75;;
50363;SDS011;36272;59.400;17.982;2023-04-25T02:12:17;11.48;;;7.70;;
50363;SDS011;36272;59.400;17.982;2023-04-25T02:17:18;11.60;;;7.30;;
50363;SDS011;36272;59.400;17.982;2023-04-25T02:22:20;10.35;;;6.70;;
50363;SDS011;36272;59.400;17.982;2023-04-25T02:27:22;17.00;;;7.50;;
50363;SDS011;36272;59.400;17.982;2023-04-25T02:32:23;16.77;;;8.02;;
50363;SDS011;36272;59.400;17.982;2023-04-25T02:37:25;10.00;;;6.53;;
50363;SDS011;36272;59.400;17.982;2023-04-25T02:42:27;12.48;;;6.93;;
50363;SDS011;36272;59.400;17.982;2023-04-25T02:47:29;10.07;;;5.78;;
50363;SDS011;36272;59.400;17.982;2023-04-25T02:52:31;11.23;;;6.25;;
50363;SDS011;36272;59.400;17.982;2023-04-25T02:57:32;8.60;;;6.15;;
50363;SDS011;36272;59.400;17.982;2023-04-25T03:02:34;9.10;;;5.75;;
50363;SDS011;36272;59.400;17.982;2023-04-25T03:07:36;7.45;;;4.82;;
50363;SDS011;36272;59.400;17.982;2023-04-25T03:12:37;7.80;;;4.90;;
50363;SDS011;36272;59.400;17.982;2023-04-25T03:17:39;6.88;;;4.22;;
50363;SDS011;36272;59.400;17.982;2023-04-25T03:22:41;5.50;;;3.90;;
50363;SDS011;36272;59.400;17.982;2023-04-25T03:27:43;5.15;;;3.50;;
50363;SDS011;36272;59.400;17.982;2023-04-25T03:32:46;5.20;;;3.17;;
50363;SDS011;36272;59.400;17.982;2023-04-25T03:37:48;4.72;;;3.20;;
50363;SDS011;36272;59.400;17.982;2023-04-25T03:42:53;3.58;;;2.65;;
50363;SDS011;36272;59.400;17.982;2023-04-25T03:47:54;4.60;;;2.70;;
50363;SDS011;36272;59.400;17.982;2023-04-25T03:52:56;5.20;;;2.80;;
50363;SDS011;36272;59.400;17.982;2023-04-25T03:57:58;4.72;;;2.65;;
50363;SDS011;36272;59.400;17.982;2023-04-25T04:03:02;3.88;;;2.50;;
50363;SDS011;36272;59.400;17.982;2023-04-25T04:08:04;3.47;;;2.50;;
50363;SDS011;36272;59.400;17.982;2023-04-25T04:13:06;3.00;;;2.28;;
50363;SDS011;36272;59.400;17.982;2023-04-25T04:18:08;3.20;;;2.00;;
50363;SDS011;36272;59.400;17.982;2023-04-25T04:23:09;3.70;;;2.40;;
50363;SDS011;36272;59.400;17.982;2023-04-25T04:28:11;4.47;;;2.60;;
50363;SDS011;36272;59.400;17.982;2023-04-25T04:33:14;3.70;;;2.50;;
50363;SDS011;36272;59.400;17.982;2023-04-25T04:38:16;3.97;;;2.42;;
50363;SDS011;36272;59.400;17.982;2023-04-25T04:43:17;4.00;;;2.70;;
50363;SDS011;36272;59.400;17.982;2023-04-25T04:48:19;4.82;;;2.80;;
50363;SDS011;36272;59.400;17.982;2023-04-25T04:53:24;7.03;;;2.97;;
50363;SDS011;36272;59.400;17.982;2023-04-25T04:58:26;7.00;;;4.13;;
50363;SDS011;36272;59.400;17.982;2023-04-25T05:03:30;5.13;;;3.60;;
50363;SDS011;36272;59.400;17.982;2023-04-25T05:08:31;5.80;;;3.75;;
50363;SDS011;36272;59.400;17.982;2023-04-25T05:13:49;7.22;;;4.65;;
50363;SDS011;36272;59.400;17.982;2023-04-25T05:18:54;8.60;;;4.70;;
50363;SDS011;36272;59.400;17.982;2023-04-25T05:23:57;9.95;;;5.22;;
50363;SDS011;36272;59.400;17.982;2023-04-25T05:29:03;11.88;;;5.28;;
50363;SDS011;36272;59.400;17.982;2023-04-25T05:34:05;11.48;;;5.32;;
50363;SDS011;36272;59.400;17.982;2023-04-25T05:39:11;11.90;;;6.90;;
50363;SDS011;36272;59.400;17.982;2023-04-25T05:44:22;15.48;;;6.75;;
50363;SDS011;36272;59.400;17.982;2023-04-25T05:49:24;13.82;;;6.20;;
50363;SDS011;36272;59.400;17.982;2023-04-25T05:54:26;22.23;;;7.10;;
50363;SDS011;36272;59.400;17.982;2023-04-25T05:59:28;18.52;;;7.40;;
50363;SDS011;36272;59.400;17.982;2023-04-25T06:04:29;18.27;;;7.70;;
50363;SDS011;36272;59.400;17.982;2023-04-25T06:09:31;15.15;;;6.70;;
50363;SDS011;36272;59.400;17.982;2023-04-25T06:14:33;17.17;;;6.72;;
50363;SDS011;36272;59.400;17.982;2023-04-25T06:19:35;22.25;;;7.68;;
50363;SDS011;36272;59.400;17.982;2023-04-25T06:24:37;11.95;;;6.50;;
50363;SDS011;36272;59.400;17.982;2023-04-25T06:29:41;19.17;;;6.68;;
50363;SDS011;36272;59.400;17.982;2023-04-25T06:34:52;16.73;;;6.70;;
50363;SDS011;36272;59.400;17.982;2023-04-25T06:39:54;13.82;;;6.13;;
50363;SDS011;36272;59.400;17.982;2023-04-25T06:44:56;12.30;;;5.93;;
50363;SDS011;36272;59.400;17.982;2023-04-25T06:49:58;14.68;;;6.70;;
50363;SDS011;36272;59.400;17.982;2023-04-25T06:55:02;11.50;;;5.88;;
50363;SDS011;36272;59.400;17.982;2023-04-25T07:00:05;11.82;;;6.05;;
50363;SDS011;36272;59.400;17.982;2023-04-25T07:05:10;9.63;;;5.15;;
50363;SDS011;36272;59.400;17.982;2023-04-25T07:10:12;10.63;;;4.88;;
50363;SDS011;36272;59.400;17.982;2023-04-25T07:15:13;11.88;;;5.45;;
50363;SDS011;36272;59.400;17.982;2023-04-25T07:20:15;9.90;;;5.30;;
50363;SDS011;36272;59.400;17.982;2023-04-25T07:25:17;11.38;;;5.30;;
50363;SDS011;36272;59.400;17.982;2023-04-25T07:30:19;13.95;;;6.72;;
50363;SDS011;36272;59.400;17.982;2023-04-25T07:35:20;9.32;;;5.03;;
50363;SDS011;36272;59.400;17.982;2023-04-25T07:40:25;10.88;;;5.57;;
50363;SDS011;36272;59.400;17.982;2023-04-25T07:45:26;8.27;;;5.63;;
50363;SDS011;36272;59.400;17.982;2023-04-25T07:50:34;9.88;;;5.43;;
50363;SDS011;36272;59.400;17.982;2023-04-25T07:55:35;14.05;;;7.05;;
50363;SDS011;36272;59.400;17.982;2023-04-25T08:00:41;15.27;;;6.87;;
50363;SDS011;36272;59.400;17.982;2023-04-25T08:06:00;11.60;;;6.60;;
50363;SDS011;36272;59.400;17.982;2023-04-25T08:11:01;11.27;;;6.75;;
50363;SDS011;36272;59.400;17.982;2023-04-25T08:16:03;11.27;;;7.25;;
50363;SDS011;36272;59.400;17.982;2023-04-25T08:21:05;12.38;;;6.90;;
50363;SDS011;36272;59.400;17.982;2023-04-25T08:26:07;12.63;;;6.63;;
50363;SDS011;36272;59.400;17.982;2023-04-25T08:31:09;11.35;;;6.20;;
50363;SDS011;36272;59.400;17.982;2023-04-25T08:36:13;16.40;;;7.30;;
50363;SDS011;36272;59.400;17.982;2023-04-25T08:41:16;18.73;;;8.02;;
50363;SDS011;36272;59.400;17.982;2023-04-25T08:46:18;14.77;;;6.80;;
50363;SDS011;36272;59.400;17.982;2023-04-25T08:51:22;15.23;;;7.50;;
50363;SDS011;36272;59.400;17.982;2023-04-25T09:01:28;14.60;;;8.15;;
50363;SDS011;36272;59.400;17.982;2023-04-25T09:06:30;12.95;;;7.93;;
50363;SDS011;36272;59.400;17.982;2023-04-25T09:11:33;13.43;;;7.97;;
50363;SDS011;36272;59.400;17.982;2023-04-25T09:16:47;13.70;;;7.53;;
50363;SDS011;36272;59.400;17.982;2023-04-25T09:22:00;13.48;;;8.02;;
50363;SDS011;36272;59.400;17.982;2023-04-25T09:27:10;16.10;;;8.75;;
50363;SDS011;36272;59.400;17.982;2023-04-25T09:32:21;13.98;;;8.15;;
50363;SDS011;36272;59.400;17.982;2023-04-25T09:37:25;14.52;;;8.35;;
50363;SDS011;36272;59.400;17.982;2023-04-25T09:42:28;15.18;;;8.25;;
50363;SDS011;36272;59.400;17.982;2023-04-25T09:47:32;16.20;;;9.20;;
50363;SDS011;36272;59.400;17.982;2023-04-25T09:52:44;15.85;;;9.05;;
50363;SDS011;36272;59.400;17.982;2023-04-25T09:57:46;16.92;;;9.65;;
50363;SDS011;36272;59.400;17.982;2023-04-25T10:02:53;16.05;;;9.43;;
50363;SDS011;36272;59.400;17.982;2023-04-25T10:07:59;15.63;;;9.50;;
50363;SDS011;36272;59.400;17.982;2023-04-25T10:13:05;15.90;;;8.35;;
50363;SDS011;36272;59.400;17.982;2023-04-25T10:18:07;15.00;;;8.20;;
50363;SDS011;36272;59.400;17.982;2023-04-25T10:23:12;14.52;;;7.60;;
50363;SDS011;36272;59.400;17.982;2023-04-25T10:28:16;14.00;;;9.00;;
50363;SDS011;36272;59.400;17.982;2023-04-25T10:33:18;13.25;;;7.53;;
50363;SDS011;36272;59.400;17.982;2023-04-25T10:38:19;13.43;;;8.60;;
50363;SDS011;36272;59.400;17.982;2023-04-25T10:43:40;15.23;;;7.78;;
50363;SDS011;36272;59.400;17.982;2023-04-25T10:48:52;16.27;;;8.90;;
50363;SDS011;36272;59.400;17.982;2023-04-25T10:53:59;16.73;;;8.60;;
50363;SDS011;36272;59.400;17.982;2023-04-25T11:04:30;15.10;;;8.70;;
50363;SDS011;36272;59.400;17.982;2023-04-25T11:09:51;11.30;;;7.90;;
50363;SDS011;36272;59.400;17.982;2023-04-25T11:15:03;16.73;;;8.75;;
50363;SDS011;36272;59.400;17.982;2023-04-25T11:20:07;16.95;;;9.18;;
50363;SDS011;36272;59.400;17.982;2023-04-25T11:25:13;14.95;;;9.70;;
50363;SDS011;36272;59.400;17.982;2023-04-25T11:30:16;12.93;;;8.45;;
50363;SDS011;36272;59.400;17.982;2023-04-25T11:35:19;15.25;;;10.20;;
50363;SDS011;36272;59.400;17.982;2023-04-25T11:40:23;16.15;;;9.38;;
50363;SDS011;36272;59.400;17.982;2023-04-25T11:45:25;20.88;;;9.70;;
50363;SDS011;36272;59.400;17.982;2023-04-25T11:50:27;16.35;;;10.18;;
50363;SDS011;36272;59.400;17.982;2023-04-25T11:55:29;13.80;;;9.85;;
50363;SDS011;36272;59.400;17.982;2023-04-25T12:00:31;19.13;;;10.02;;
50363;SDS011;36272;59.400;17.982;2023-04-25T12:05:33;19.13;;;9.88;;
50363;SDS011;36272;59.400;17.982;2023-04-25T12:10:36;15.55;;;9.65;;
50363;SDS011;36272;59.400;17.982;2023-04-25T12:15:41;15.23;;;9.23;;
50363;SDS011;36272;59.400;17.982;2023-04-25T12:20:42;12.45;;;9.07;;
50363;SDS011;36272;59.400;17.982;2023-04-25T12:25:44;12.23;;;9.02;;
50363;SDS011;36272;59.400;17.982;2023-04-25T12:30:54;12.18;;;8.80;;
50363;SDS011;36272;59.400;17.982;2023-04-25T12:35:57;14.60;;;8.48;;
50363;SDS011;36272;59.400;17.982;2023-04-25T12:40:59;16.70;;;8.95;;
50363;SDS011;36272;59.400;17.982;2023-04-25T12:46:03;12.65;;;7.85;;
50363;SDS011;36272;59.400;17.982;2023-04-25T12:51:05;11.25;;;7.88;;
50363;SDS011;36272;59.400;17.982;2023-04-25T12:56:07;16.85;;;7.93;;
50363;SDS011;36272;59.400;17.982;2023-04-25T13:01:09;15.75;;;7.50;;
50363;SDS011;36272;59.400;17.982;2023-04-25T13:06:11;13.55;;;6.70;;
50363;SDS011;36272;59.400;17.982;2023-04-25T13:11:14;9.65;;;6.80;;
50363;SDS011;36272;59.400;17.982;2023-04-25T13:16:18;12.50;;;7.40;;
50363;SDS011;36272;59.400;17.982;2023-04-25T13:21:21;11.18;;;6.82;;
50363;SDS011;36272;59.400;17.982;2023-04-25T13:26:23;12.45;;;6.90;;
50363;SDS011;36272;59.400;17.982;2023-04-25T13:31:25;27.40;;;7.30;;
50363;SDS011;36272;59.400;17.982;2023-04-25T13:36:26;12.18;;;6.65;;
50363;SDS011;36272;59.400;17.982;2023-04-25T13:41:29;12.50;;;6.38;;
50363;SDS011;36272;59.400;17.982;2023-04-25T13:46:30;9.90;;;5.85;;
50363;SDS011;36272;59.400;17.982;2023-04-25T13:51:32;20.60;;;6.63;;
50363;SDS011;36272;59.400;17.982;2023-04-25T13:56:34;11.27;;;5.90;;
50363;SDS011;36272;59.400;17.982;2023-04-25T14:01:36;12.93;;;6.40;;
50363;SDS011;36272;59.400;17.982;2023-04-25T14:06:37;12.48;;;5.75;;
50363;SDS011;36272;59.400;17.982;2023-04-25T14:11:41;17.50;;;6.22;;
50363;SDS011;36272;59.400;17.982;2023-04-25T14:16:49;8.40;;;5.25;;
50363;SDS011;36272;59.400;17.982;2023-04-25T14:21:52;10.57;;;6.30;;
50363;SDS011;36272;59.400;17.982;2023-04-25T14:26:54;18.17;;;7.50;;
50363;SDS011;36272;59.400;17.982;2023-04-25T14:31:55;12.13;;;7.43;;
50363;SDS011;36272;59.400;17.982;2023-04-25T14:36:58;49.50;;;10.52;;
50363;SDS011;36272;59.400;17.982;2023-04-25T14:42:01;53.40;;;10.30;;
50363;SDS011;36272;59.400;17.982;2023-04-25T14:47:03;17.98;;;8.35;;
50363;SDS011;36272;59.400;17.982;2023-04-25T14:52:04;17.00;;;9.25;;
50363;SDS011;36272;59.400;17.982;2023-04-25T14:57:06;18.38;;;8.85;;
50363;SDS011;36272;59.400;17.982;2023-04-25T15:02:09;14.02;;;9.85;;
50363;SDS011;36272;59.400;17.982;2023-04-25T15:07:13;23.88;;;9.73;;
50363;SDS011;36272;59.400;17.982;2023-04-25T15:12:15;60.42;;;10.93;;
50363;SDS011;36272;59.400;17.982;2023-04-25T15:17:16;17.70;;;9.27;;
50363;SDS011;36272;59.400;17.982;2023-04-25T15:22:20;26.17;;;10.30;;
50363;SDS011;36272;59.400;17.982;2023-04-25T15:27:22;30.05;;;10.55;;
50363;SDS011;36272;59.400;17.982;2023-04-25T15:32:24;15.95;;;10.00;;
50363;SDS011;36272;59.400;17.982;2023-04-25T15:37:26;12.60;;;6.43;;
50363;SDS011;36272;59.400;17.982;2023-04-25T15:42:27;22.52;;;3.55;;
50363;SDS011;36272;59.400;17.982;2023-04-25T15:47:29;8.90;;;3.42;;
50363;SDS011;36272;59.400;17.982;2023-04-25T15:52:31;6.47;;;3.15;;
50363;SDS011;36272;59.400;17.982;2023-04-25T15:57:34;5.00;;;2.97;;
50363;SDS011;36272;59.400;17.982;2023-04-25T16:02:37;13.52;;;3.03;;
50363;SDS011;36272;59.400;17.982;2023-04-25T16:12:53;18.35;;;4.20;;
50363;SDS011;36272;59.400;17.982;2023-04-25T16:17:55;5.82;;;3.10;;
50363;SDS011;36272;59.400;17.982;2023-04-25T16:22:57;11.23;;;3.88;;
50363;SDS011;36272;59.400;17.982;2023-04-25T16:28:03;11.05;;;3.85;;
50363;SDS011;36272;59.400;17.982;2023-04-25T16:33:04;7.32;;;4.45;;
50363;SDS011;36272;59.400;17.982;2023-04-25T16:38:08;12.95;;;4.97;;
50363;SDS011;36272;59.400;17.982;2023-04-25T16:43:10;9.43;;;4.15;;
50363;SDS011;36272;59.400;17.982;2023-04-25T16:48:12;10.38;;;4.60;;
50363;SDS011;36272;59.400;17.982;2023-04-25T16:53:15;14.85;;;5.20;;
50363;SDS011;36272;59.400;17.982;2023-04-25T16:58:23;10.48;;;6.15;;
50363;SDS011;36272;59.400;17.982;2023-04-25T17:03:27;9.50;;;5.80;;
50363;SDS011;36272;59.400;17.982;2023-04-25T17:08:29;10.55;;;6.00;;
50363;SDS011;36272;59.400;17.982;2023-04-25T17:13:30;12.07;;;6.57;;
50363;SDS011;36272;59.400;17.982;2023-04-25T17:18:33;17.52;;;6.55;;
50363;SDS011;36272;59.400;17.982;2023-04-25T17:23:34;12.90;;;7.45;;
50363;SDS011;36272;59.400;17.982;2023-04-25T17:28:37;14.38;;;7.45;;
50363;SDS011;36272;59.400;17.982;2023-04-25T17:33:41;15.43;;;7.82;;
50363;SDS011;36272;59.400;17.982;2023-04-25T17:38:46;19.02;;;9.15;;
50363;SDS011;36272;59.400;17.982;2023-04-25T17:43:50;14.32;;;8.40;;
50363;SDS011;36272;59.400;17.982;2023-04-25T17:48:52;16.25;;;8.80;;
50363;SDS011;36272;59.400;17.982;2023-04-25T17:53:53;21.08;;;9.23;;
50363;SDS011;36272;59.400;17.982;2023-04-25T17:58:55;18.27;;;10.15;;
50363;SDS011;36272;59.400;17.982;2023-04-25T18:03:57;29.42;;;11.45;;
50363;SDS011;36272;59.400;17.982;2023-04-25T18:09:01;19.95;;;10.88;;
50363;SDS011;36272;59.400;17.982;2023-04-25T18:14:23;16.90;;;11.38;;
50363;SDS011;36272;59.400;17.982;2023-04-25T18:19:31;18.88;;;12.27;;
50363;SDS011;36272;59.400;17.982;2023-04-25T18:24:32;20.80;;;12.13;;
50363;SDS011;36272;59.400;17.982;2023-04-25T18:29:34;17.30;;;11.60;;
50363;SDS011;36272;59.400;17.982;2023-04-25T18:34:37;20.15;;;12.68;;
50363;SDS011;36272;59.400;17.982;2023-04-25T18:39:50;23.13;;;14.13;;
50363;SDS011;36272;59.400;17.982;2023-04-25T18:44:52;27.52;;;14.05;;
50363;SDS011;36272;59.400;17.982;2023-04-25T18:49:53;22.95;;;14.45;;
50363;SDS011;36272;59.400;17.982;2023-04-25T18:54:55;27.30;;;14.13;;
50363;SDS011;36272;59.400;17.982;2023-04-25T19:00:03;24.65;;;14.02;;
50363;SDS011;36272;59.400;17.982;2023-04-25T19:05:08;23.05;;;14.25;;
50363;SDS011;36272;59.400;17.982;2023-04-25T19:10:10;22.45;;;13.65;;
50363;SDS011;36272;59.400;17.982;2023-04-25T19:15:12;24.27;;;14.52;;
50363;SDS011;36272;59.400;17.982;2023-04-25T19:20:14;28.00;;;14.43;;
50363;SDS011;36272;59.400;17.982;2023-04-25T19:25:16;22.30;;;14.90;;
50363;SDS011;36272;59.400;17.982;2023-04-25T19:30:18;24.33;;;14.95;;
50363;SDS011;36272;59.400;17.982;2023-04-25T19:35:20;31.63;;;16.23;;
50363;SDS011;36272;59.400;17.982;2023-04-25T19:40:22;24.80;;;15.65;;
50363;SDS011;36272;59.400;17.982;2023-04-25T19:45:23;47.08;;;17.23;;
50363;SDS011;36272;59.400;17.982;2023-04-25T19:50:30;28.05;;;16.27;;
50363;SDS011;36272;59.400;17.982;2023-04-25T19:55:51;33.10;;;16.30;;
50363;SDS011;36272;59.400;17.982;2023-04-25T20:00:52;34.83;;;18.15;;
50363;SDS011;36272;59.400;17.982;2023-04-25T20:05:56;31.55;;;19.80;;
50363;SDS011;36272;59.400;17.982;2023-04-25T20:11:01;31.55;;;19.40;;
50363;SDS011;36272;59.400;17.982;2023-04-25T20:16:02;33.63;;;16.83;;
50363;SDS011;36272;59.400;17.982;2023-04-25T20:21:04;33.40;;;18.20;;
50363;SDS011;36272;59.400;17.982;2023-04-25T20:26:07;32.25;;;19.38;;
50363;SDS011;36272;59.400;17.982;2023-04-25T20:31:09;33.72;;;18.88;;
50363;SDS011;36272;59.400;17.982;2023-04-25T20:36:11;33.78;;;19.40;;
50363;SDS011;36272;59.400;17.982;2023-04-25T20:41:15;31.35;;;19.08;;
50363;SDS011;36272;59.400;17.982;2023-04-25T20:46:17;33.45;;;18.77;;
50363;SDS011;36272;59.400;17.982;2023-04-25T20:51:18;30.90;;;16.92;;
50363;SDS011;36272;59.400;17.982;2023-04-25T20:56:20;39.40;;;18.40;;
50363;SDS011;36272;59.400;17.982;2023-04-25T21:01:27;32.40;;;18.67;;
50363;SDS011;36272;59.400;17.982;2023-04-25T21:06:29;35.25;;;18.90;;
50363;SDS011;36272;59.400;17.982;2023-04-25T21:11:31;39.30;;;19.23;;
50363;SDS011;36272;59.400;17.982;2023-04-25T21:16:36;35.40;;;19.47;;
50363;SDS011;36272;59.400;17.982;2023-04-25T21:21:41;38.58;;;20.33;;
50363;SDS011;36272;59.400;17.982;2023-04-25T21:26:52;41.97;;;21.02;;
50363;SDS011;36272;59.400;17.982;2023-04-25T21:31:54;36.17;;;18.27;;
50363;SDS011;36272;59.400;17.982;2023-04-25T21:36:56;39.70;;;18.23;;
50363;SDS011;36272;59.400;17.982;2023-04-25T21:42:01;36.13;;;18.35;;
50363;SDS011;36272;59.400;17.982;2023-04-25T21:47:06;34.45;;;16.20;;
50363;SDS011;36272;59.400;17.982;2023-04-25T21:52:08;38.67;;;19.10;;
50363;SDS011;36272;59.400;17.982;2023-04-25T21:57:09;39.60;;;19.63;;
50363;SDS011;36272;59.400;17.982;2023-04-25T22:02:14;35.30;;;19.48;;
50363;SDS011;36272;59.400;17.982;2023-04-25T22:07:16;35.63;;;18.95;;
50363;SDS011;36272;59.400;17.982;2023-04-25T22:12:17;37.88;;;19.42;;
50363;SDS011;36272;59.400;17.982;2023-04-25T22:17:19;36.70;;;18.35;;
50363;SDS011;36272;59.400;17.982;2023-04-25T22:22:27;31.48;;;18.20;;
50363;SDS011;36272;59.400;17.982;2023-04-25T22:27:28;33.00;;;18.20;;
50363;SDS011;36272;59.400;17.982;2023-04-25T22:32:35;38.40;;;19.25;;
50363;SDS011;36272;59.400;17.982;2023-04-25T22:37:37;35.50;;;17.33;;
50363;SDS011;36272;59.400;17.982;2023-04-25T22:42:41;36.88;;;17.52;;
50363;SDS011;36272;59.400;17.982;2023-04-25T22:47:44;33.22;;;16.08;;
50363;SDS011;36272;59.400;17.982;2023-04-25T22:52:54;36.22;;;17.90;;
50363;SDS011;36272;59.400;17.982;2023-04-25T22:57:56;29.42;;;16.52;;
50363;SDS011;36272;59.400;17.982;2023-04-25T23:02:57;28.65;;;15.20;;
50363;SDS011;36272;59.400;17.982;2023-04-25T23:07:59;28.80;;;14.10;;
50363;SDS011;36272;59.400;17.982;2023-04-25T23:13:01;53.95;;;16.02;;
50363;SDS011;36272;59.400;17.982;2023-04-25T23:18:03;31.95;;;14.48;;
50363;SDS011;36272;59.400;17.982;2023-04-25T23:23:05;30.58;;;15.70;;
50363;SDS011;36272;59.400;17.982;2023-04-25T23:28:07;25.83;;;13.50;;
50363;SDS011;36272;59.400;17.982;2023-04-25T23:33:14;28.83;;;12.50;;
50363;SDS011;36272;59.400;17.982;2023-04-25T23:38:16;35.65;;;12.73;;
50363;SDS011;36272;59.400;17.982;2023-04-25T23:43:18;32.25;;;13.50;;
50363;SDS011;36272;59.400;17.982;2023-04-25T23:48:19;23.85;;;11.25;;
50363;SDS011;36272;59.400;17.982;2023-04-25T23:53:21;28.15;;;12.73;;
50363;SDS011;36272;59.400;17.982;2023-04-25T23:58:23;35.38;;;13.02;;
